sensor_id;sensor_type;location;lat;lon;timestamp;temperature;humidity
80256;DHT22;69564;37.974;23.708;2023-05-07T00:00:00;22.50;36.90
80256;DHT22;69564;37.974;23.708;2023-05-07T00:02:26;22.50;36.90
80256;DHT22;69564;37.974;23.708;2023-05-07T00:04:52;22.50;36.90
80256;DHT22;69564;37.974;23.708;2023-05-07T00:07:18;22.50;36.90
80256;DHT22;69564;37.974;23.708;2023-05-07T00:09:44;22.50;37.00
80256;DHT22;69564;37.974;23.708;2023-05-07T00:12:10;22.50;37.10
80256;DHT22;69564;37.974;23.708;2023-05-07T00:14:36;22.50;37.00
80256;DHT22;69564;37.974;23.708;2023-05-07T00:17:02;22.50;37.00
80256;DHT22;69564;37.974;23.708;2023-05-07T00:19:27;22.50;37.00
80256;DHT22;69564;37.974;23.708;2023-05-07T00:21:53;22.50;37.00
80256;DHT22;69564;37.974;23.708;2023-05-07T00:24:19;22.50;37.00
80256;DHT22;69564;37.974;23.708;2023-05-07T00:26:45;22.50;37.10
80256;DHT22;69564;37.974;23.708;2023-05-07T00:29:11;22.50;37.10
80256;DHT22;69564;37.974;23.708;2023-05-07T00:31:36;22.50;37.10
80256;DHT22;69564;37.974;23.708;2023-05-07T00:34:02;22.50;37.10
80256;DHT22;69564;37.974;23.708;2023-05-07T00:36:28;22.50;37.10
80256;DHT22;69564;37.974;23.708;2023-05-07T00:38:56;22.50;37.10
80256;DHT22;69564;37.974;23.708;2023-05-07T00:41:22;22.40;37.00
80256;DHT22;69564;37.974;23.708;2023-05-07T00:43:48;22.50;37.10
80256;DHT22;69564;37.974;23.708;2023-05-07T00:46:13;22.50;37.20
80256;DHT22;69564;37.974;23.708;2023-05-07T00:48:41;22.40;37.20
80256;DHT22;69564;37.974;23.708;2023-05-07T00:51:06;22.40;37.30
80256;DHT22;69564;37.974;23.708;2023-05-07T00:53:32;22.40;37.20
80256;DHT22;69564;37.974;23.708;2023-05-07T00:55:58;22.40;37.30
80256;DHT22;69564;37.974;23.708;2023-05-07T00:58:26;22.40;37.30
80256;DHT22;69564;37.974;23.708;2023-05-07T01:00:52;22.40;37.30
80256;DHT22;69564;37.974;23.708;2023-05-07T01:03:17;22.40;37.30
80256;DHT22;69564;37.974;23.708;2023-05-07T01:05:44;22.40;37.30
80256;DHT22;69564;37.974;23.708;2023-05-07T01:08:11;22.40;37.40
80256;DHT22;69564;37.974;23.708;2023-05-07T01:10:38;22.40;37.40
80256;DHT22;69564;37.974;23.708;2023-05-07T01:13:09;22.40;37.40
80256;DHT22;69564;37.974;23.708;2023-05-07T01:15:36;22.40;37.50
80256;DHT22;69564;37.974;23.708;2023-05-07T01:18:02;22.40;37.50
80256;DHT22;69564;37.974;23.708;2023-05-07T01:20:28;22.40;37.50
80256;DHT22;69564;37.974;23.708;2023-05-07T01:22:55;22.40;37.50
80256;DHT22;69564;37.974;23.708;2023-05-07T01:25:22;22.40;37.50
80256;DHT22;69564;37.974;23.708;2023-05-07T01:27:47;22.40;37.50
80256;DHT22;69564;37.974;23.708;2023-05-07T01:30:13;22.40;37.50
80256;DHT22;69564;37.974;23.708;2023-05-07T01:32:51;22.40;37.50
80256;DHT22;69564;37.974;23.708;2023-05-07T01:35:20;22.30;37.50
80256;DHT22;69564;37.974;23.708;2023-05-07T01:37:47;22.40;37.60
80256;DHT22;69564;37.974;23.708;2023-05-07T01:40:13;22.30;37.50
80256;DHT22;69564;37.974;23.708;2023-05-07T01:42:41;22.40;37.60
80256;DHT22;69564;37.974;23.708;2023-05-07T01:45:07;22.30;37.60
80256;DHT22;69564;37.974;23.708;2023-05-07T01:47:33;22.30;37.60
80256;DHT22;69564;37.974;23.708;2023-05-07T01:49:59;22.30;37.60
80256;DHT22;69564;37.974;23.708;2023-05-07T01:52:26;22.40;37.70
80256;DHT22;69564;37.974;23.708;2023-05-07T01:54:52;22.30;37.60
80256;DHT22;69564;37.974;23.708;2023-05-07T01:57:18;22.30;37.70
80256;DHT22;69564;37.974;23.708;2023-05-07T01:59:44;22.30;37.60
80256;DHT22;69564;37.974;23.708;2023-05-07T02:02:10;22.30;37.60
80256;DHT22;69564;37.974;23.708;2023-05-07T02:04:35;22.30;37.60
80256;DHT22;69564;37.974;23.708;2023-05-07T02:07:02;22.30;37.60
80256;DHT22;69564;37.974;23.708;2023-05-07T02:09:27;22.30;37.60
80256;DHT22;69564;37.974;23.708;2023-05-07T02:11:53;22.30;37.70
80256;DHT22;69564;37.974;23.708;2023-05-07T02:14:19;22.30;37.60
80256;DHT22;69564;37.974;23.708;2023-05-07T02:16:46;22.30;37.70
80256;DHT22;69564;37.974;23.708;2023-05-07T02:19:11;22.30;37.60
80256;DHT22;69564;37.974;23.708;2023-05-07T02:21:37;22.30;37.70
80256;DHT22;69564;37.974;23.708;2023-05-07T02:24:03;22.30;37.80
80256;DHT22;69564;37.974;23.708;2023-05-07T02:26:29;22.30;37.80
80256;DHT22;69564;37.974;23.708;2023-05-07T02:28:54;22.30;37.80
80256;DHT22;69564;37.974;23.708;2023-05-07T02:31:20;22.30;37.90
80256;DHT22;69564;37.974;23.708;2023-05-07T02:33:46;22.30;37.80
80256;DHT22;69564;37.974;23.708;2023-05-07T02:36:12;22.30;37.90
80256;DHT22;69564;37.974;23.708;2023-05-07T02:38:38;22.30;37.90
80256;DHT22;69564;37.974;23.708;2023-05-07T02:41:04;22.30;37.90
80256;DHT22;69564;37.974;23.708;2023-05-07T02:43:30;22.30;38.00
80256;DHT22;69564;37.974;23.708;2023-05-07T02:46:03;22.30;38.00
80256;DHT22;69564;37.974;23.708;2023-05-07T02:48:29;22.20;38.00
80256;DHT22;69564;37.974;23.708;2023-05-07T02:50:55;22.20;38.00
80256;DHT22;69564;37.974;23.708;2023-05-07T02:53:21;22.20;38.00
80256;DHT22;69564;37.974;23.708;2023-05-07T02:55:47;22.20;38.00
80256;DHT22;69564;37.974;23.708;2023-05-07T02:58:12;22.20;38.00
80256;DHT22;69564;37.974;23.708;2023-05-07T03:00:38;22.20;38.00
80256;DHT22;69564;37.974;23.708;2023-05-07T03:03:04;22.20;38.00
80256;DHT22;69564;37.974;23.708;2023-05-07T03:05:30;22.20;38.10
80256;DHT22;69564;37.974;23.708;2023-05-07T03:07:55;22.20;38.00
80256;DHT22;69564;37.974;23.708;2023-05-07T03:10:21;22.20;38.00
80256;DHT22;69564;37.974;23.708;2023-05-07T03:12:47;22.20;38.10
80256;DHT22;69564;37.974;23.708;2023-05-07T03:15:12;22.20;39.30
80256;DHT22;69564;37.974;23.708;2023-05-07T03:17:38;22.20;38.10
80256;DHT22;69564;37.974;23.708;2023-05-07T03:20:05;22.20;38.10
80256;DHT22;69564;37.974;23.708;2023-05-07T03:22:31;22.20;38.10
80256;DHT22;69564;37.974;23.708;2023-05-07T03:24:56;22.20;38.10
80256;DHT22;69564;37.974;23.708;2023-05-07T03:27:22;22.20;38.00
80256;DHT22;69564;37.974;23.708;2023-05-07T03:29:48;22.20;38.10
80256;DHT22;69564;37.974;23.708;2023-05-07T03:32:14;22.20;38.10
80256;DHT22;69564;37.974;23.708;2023-05-07T03:34:39;22.20;38.10
80256;DHT22;69564;37.974;23.708;2023-05-07T03:37:05;22.20;38.20
80256;DHT22;69564;37.974;23.708;2023-05-07T03:39:31;22.20;38.20
80256;DHT22;69564;37.974;23.708;2023-05-07T03:41:57;22.20;38.10
80256;DHT22;69564;37.974;23.708;2023-05-07T03:44:23;22.20;38.10
80256;DHT22;69564;37.974;23.708;2023-05-07T03:46:49;22.20;38.10
80256;DHT22;69564;37.974;23.708;2023-05-07T03:49:15;22.20;38.10
80256;DHT22;69564;37.974;23.708;2023-05-07T03:51:41;22.20;38.10
80256;DHT22;69564;37.974;23.708;2023-05-07T03:54:07;22.20;38.00
80256;DHT22;69564;37.974;23.708;2023-05-07T03:56:33;22.20;38.00
80256;DHT22;69564;37.974;23.708;2023-05-07T03:59:00;22.20;38.00
80256;DHT22;69564;37.974;23.708;2023-05-07T04:01:26;22.20;37.90
80256;DHT22;69564;37.974;23.708;2023-05-07T04:03:51;22.30;37.90
80256;DHT22;69564;37.974;23.708;2023-05-07T04:06:17;22.30;37.90
80256;DHT22;69564;37.974;23.708;2023-05-07T04:08:43;22.30;37.80
80256;DHT22;69564;37.974;23.708;2023-05-07T04:11:09;22.30;37.80
80256;DHT22;69564;37.974;23.708;2023-05-07T04:13:35;22.30;37.60
80256;DHT22;69564;37.974;23.708;2023-05-07T04:16:02;22.40;37.60
80256;DHT22;69564;37.974;23.708;2023-05-07T04:18:28;22.40;37.40
80256;DHT22;69564;37.974;23.708;2023-05-07T04:20:54;22.50;37.20
80256;DHT22;69564;37.974;23.708;2023-05-07T04:23:20;22.60;37.10
80256;DHT22;69564;37.974;23.708;2023-05-07T04:25:46;22.60;37.00
80256;DHT22;69564;37.974;23.708;2023-05-07T04:28:12;22.70;36.90
80256;DHT22;69564;37.974;23.708;2023-05-07T04:30:38;22.70;36.70
80256;DHT22;69564;37.974;23.708;2023-05-07T04:33:04;22.80;36.60
80256;DHT22;69564;37.974;23.708;2023-05-07T04:35:30;22.90;36.50
80256;DHT22;69564;37.974;23.708;2023-05-07T04:37:56;22.90;36.30
80256;DHT22;69564;37.974;23.708;2023-05-07T04:40:22;22.90;36.20
80256;DHT22;69564;37.974;23.708;2023-05-07T04:42:48;23.00;36.10
80256;DHT22;69564;37.974;23.708;2023-05-07T04:45:13;23.00;35.90
80256;DHT22;69564;37.974;23.708;2023-05-07T04:47:40;23.10;35.80
80256;DHT22;69564;37.974;23.708;2023-05-07T04:50:07;23.20;35.80
80256;DHT22;69564;37.974;23.708;2023-05-07T04:52:33;23.20;35.60
80256;DHT22;69564;37.974;23.708;2023-05-07T04:55:00;23.30;35.60
80256;DHT22;69564;37.974;23.708;2023-05-07T04:57:26;23.30;35.40
80256;DHT22;69564;37.974;23.708;2023-05-07T04:59:53;23.40;35.40
80256;DHT22;69564;37.974;23.708;2023-05-07T05:02:19;23.40;36.30
80256;DHT22;69564;37.974;23.708;2023-05-07T05:04:45;23.50;35.10
80256;DHT22;69564;37.974;23.708;2023-05-07T05:07:11;23.60;35.00
80256;DHT22;69564;37.974;23.708;2023-05-07T05:09:36;23.60;34.90
80256;DHT22;69564;37.974;23.708;2023-05-07T05:12:02;23.70;34.80
80256;DHT22;69564;37.974;23.708;2023-05-07T05:14:28;23.80;34.70
80256;DHT22;69564;37.974;23.708;2023-05-07T05:16:54;23.80;34.50
80256;DHT22;69564;37.974;23.708;2023-05-07T05:19:20;23.80;34.50
80256;DHT22;69564;37.974;23.708;2023-05-07T05:21:46;23.90;34.40
80256;DHT22;69564;37.974;23.708;2023-05-07T05:24:12;23.90;34.20
80256;DHT22;69564;37.974;23.708;2023-05-07T05:26:37;24.00;34.10
80256;DHT22;69564;37.974;23.708;2023-05-07T05:29:03;24.00;34.00
80256;DHT22;69564;37.974;23.708;2023-05-07T05:31:29;24.10;34.10
80256;DHT22;69564;37.974;23.708;2023-05-07T05:33:55;24.10;33.80
80256;DHT22;69564;37.974;23.708;2023-05-07T05:36:20;24.20;33.70
80256;DHT22;69564;37.974;23.708;2023-05-07T05:38:46;24.20;33.60
80256;DHT22;69564;37.974;23.708;2023-05-07T05:41:12;24.30;33.60
80256;DHT22;69564;37.974;23.708;2023-05-07T05:43:38;24.30;33.40
80256;DHT22;69564;37.974;23.708;2023-05-07T05:46:03;24.40;33.30
80256;DHT22;69564;37.974;23.708;2023-05-07T05:48:30;24.40;33.30
80256;DHT22;69564;37.974;23.708;2023-05-07T05:50:56;24.50;33.20
80256;DHT22;69564;37.974;23.708;2023-05-07T05:53:21;24.50;33.20
80256;DHT22;69564;37.974;23.708;2023-05-07T05:55:47;24.60;33.10
80256;DHT22;69564;37.974;23.708;2023-05-07T05:58:13;24.70;33.00
80256;DHT22;69564;37.974;23.708;2023-05-07T06:00:40;24.70;33.00
80256;DHT22;69564;37.974;23.708;2023-05-07T06:03:06;24.70;32.90
80256;DHT22;69564;37.974;23.708;2023-05-07T06:05:32;24.80;32.80
80256;DHT22;69564;37.974;23.708;2023-05-07T06:07:57;24.80;32.70
80256;DHT22;69564;37.974;23.708;2023-05-07T06:10:23;24.90;32.70
80256;DHT22;69564;37.974;23.708;2023-05-07T06:12:49;24.90;33.70
80256;DHT22;69564;37.974;23.708;2023-05-07T06:15:15;24.90;32.50
80256;DHT22;69564;37.974;23.708;2023-05-07T06:17:41;25.00;32.40
80256;DHT22;69564;37.974;23.708;2023-05-07T06:20:07;25.00;32.30
80256;DHT22;69564;37.974;23.708;2023-05-07T06:22:33;25.00;32.20
80256;DHT22;69564;37.974;23.708;2023-05-07T06:24:58;25.10;32.30
80256;DHT22;69564;37.974;23.708;2023-05-07T06:27:24;25.10;32.20
80256;DHT22;69564;37.974;23.708;2023-05-07T06:29:50;25.10;31.90
80256;DHT22;69564;37.974;23.708;2023-05-07T06:32:16;25.20;32.00
80256;DHT22;69564;37.974;23.708;2023-05-07T06:34:42;25.20;31.90
80256;DHT22;69564;37.974;23.708;2023-05-07T06:37:08;25.30;31.90
80256;DHT22;69564;37.974;23.708;2023-05-07T06:39:34;25.30;31.80
80256;DHT22;69564;37.974;23.708;2023-05-07T06:42:02;25.30;31.70
80256;DHT22;69564;37.974;23.708;2023-05-07T06:44:30;25.30;31.50
80256;DHT22;69564;37.974;23.708;2023-05-07T06:46:56;25.30;31.40
80256;DHT22;69564;37.974;23.708;2023-05-07T06:49:22;25.30;31.30
80256;DHT22;69564;37.974;23.708;2023-05-07T06:51:48;25.40;31.20
80256;DHT22;69564;37.974;23.708;2023-05-07T06:54:14;25.40;31.20
80256;DHT22;69564;37.974;23.708;2023-05-07T06:56:39;25.40;31.10
80256;DHT22;69564;37.974;23.708;2023-05-07T06:59:06;25.40;31.00
80256;DHT22;69564;37.974;23.708;2023-05-07T07:01:32;25.40;31.00
80256;DHT22;69564;37.974;23.708;2023-05-07T07:03:57;25.40;30.90
80256;DHT22;69564;37.974;23.708;2023-05-07T07:06:23;25.50;30.90
80256;DHT22;69564;37.974;23.708;2023-05-07T07:08:49;25.50;30.80
80256;DHT22;69564;37.974;23.708;2023-05-07T07:11:15;25.50;30.70
80256;DHT22;69564;37.974;23.708;2023-05-07T07:13:41;25.50;30.70
80256;DHT22;69564;37.974;23.708;2023-05-07T07:16:08;25.50;30.60
80256;DHT22;69564;37.974;23.708;2023-05-07T07:18:33;25.50;30.50
80256;DHT22;69564;37.974;23.708;2023-05-07T07:20:59;25.50;30.50
80256;DHT22;69564;37.974;23.708;2023-05-07T07:23:25;25.50;30.40
80256;DHT22;69564;37.974;23.708;2023-05-07T07:25:51;25.50;30.30
80256;DHT22;69564;37.974;23.708;2023-05-07T07:28:17;25.50;30.20
80256;DHT22;69564;37.974;23.708;2023-05-07T07:30:43;25.50;30.20
80256;DHT22;69564;37.974;23.708;2023-05-07T07:33:08;25.50;30.10
80256;DHT22;69564;37.974;23.708;2023-05-07T07:35:34;25.50;30.00
80256;DHT22;69564;37.974;23.708;2023-05-07T07:38:00;25.50;30.00
80256;DHT22;69564;37.974;23.708;2023-05-07T07:40:27;25.60;30.00
80256;DHT22;69564;37.974;23.708;2023-05-07T07:42:53;25.50;29.90
80256;DHT22;69564;37.974;23.708;2023-05-07T07:45:19;25.50;29.90
80256;DHT22;69564;37.974;23.708;2023-05-07T07:47:45;25.50;29.90
80256;DHT22;69564;37.974;23.708;2023-05-07T07:50:11;25.60;29.90
80256;DHT22;69564;37.974;23.708;2023-05-07T07:52:37;25.50;29.80
80256;DHT22;69564;37.974;23.708;2023-05-07T07:55:03;25.50;29.80
80256;DHT22;69564;37.974;23.708;2023-05-07T07:57:30;25.50;29.80
80256;DHT22;69564;37.974;23.708;2023-05-07T07:59:55;25.50;29.80
80256;DHT22;69564;37.974;23.708;2023-05-07T08:02:21;25.60;29.80
80256;DHT22;69564;37.974;23.708;2023-05-07T08:04:47;25.50;29.70
80256;DHT22;69564;37.974;23.708;2023-05-07T08:07:13;25.50;29.70
80256;DHT22;69564;37.974;23.708;2023-05-07T08:09:39;25.60;29.70
80256;DHT22;69564;37.974;23.708;2023-05-07T08:12:06;25.50;29.60
80256;DHT22;69564;37.974;23.708;2023-05-07T08:14:32;25.50;29.70
80256;DHT22;69564;37.974;23.708;2023-05-07T08:16:58;25.50;29.60
80256;DHT22;69564;37.974;23.708;2023-05-07T08:19:24;25.50;29.60
80256;DHT22;69564;37.974;23.708;2023-05-07T08:21:50;25.50;30.50
80256;DHT22;69564;37.974;23.708;2023-05-07T08:24:16;25.50;29.60
80256;DHT22;69564;37.974;23.708;2023-05-07T08:26:43;25.50;29.50
80256;DHT22;69564;37.974;23.708;2023-05-07T08:29:09;25.50;29.50
80256;DHT22;69564;37.974;23.708;2023-05-07T08:31:35;25.50;29.50
80256;DHT22;69564;37.974;23.708;2023-05-07T08:34:01;25.50;29.50
80256;DHT22;69564;37.974;23.708;2023-05-07T08:36:26;25.50;29.40
80256;DHT22;69564;37.974;23.708;2023-05-07T08:38:53;25.50;29.50
80256;DHT22;69564;37.974;23.708;2023-05-07T08:41:19;25.50;29.50
80256;DHT22;69564;37.974;23.708;2023-05-07T08:43:48;25.50;29.50
80256;DHT22;69564;37.974;23.708;2023-05-07T08:46:18;25.50;29.40
80256;DHT22;69564;37.974;23.708;2023-05-07T08:48:47;25.50;29.50
80256;DHT22;69564;37.974;23.708;2023-05-07T08:51:15;25.50;29.50
80256;DHT22;69564;37.974;23.708;2023-05-07T08:53:42;25.50;29.50
80256;DHT22;69564;37.974;23.708;2023-05-07T08:56:11;25.50;29.50
80256;DHT22;69564;37.974;23.708;2023-05-07T08:58:37;25.50;29.50
80256;DHT22;69564;37.974;23.708;2023-05-07T09:01:10;25.50;29.50
80256;DHT22;69564;37.974;23.708;2023-05-07T09:03:38;25.50;29.50
80256;DHT22;69564;37.974;23.708;2023-05-07T09:06:04;25.50;29.50
80256;DHT22;69564;37.974;23.708;2023-05-07T09:08:34;25.40;29.50
80256;DHT22;69564;37.974;23.708;2023-05-07T09:11:01;25.50;29.60
80256;DHT22;69564;37.974;23.708;2023-05-07T09:13:27;25.40;29.50
80256;DHT22;69564;37.974;23.708;2023-05-07T09:15:53;25.40;29.50
80256;DHT22;69564;37.974;23.708;2023-05-07T09:18:19;25.40;29.60
80256;DHT22;69564;37.974;23.708;2023-05-07T09:20:44;25.50;29.70
80256;DHT22;69564;37.974;23.708;2023-05-07T09:23:10;25.40;29.60
80256;DHT22;69564;37.974;23.708;2023-05-07T09:25:37;25.40;29.60
80256;DHT22;69564;37.974;23.708;2023-05-07T09:28:04;25.40;29.70
80256;DHT22;69564;37.974;23.708;2023-05-07T09:30:33;25.40;29.70
80256;DHT22;69564;37.974;23.708;2023-05-07T09:33:00;25.40;29.70
80256;DHT22;69564;37.974;23.708;2023-05-07T09:35:26;25.40;29.60
80256;DHT22;69564;37.974;23.708;2023-05-07T09:37:57;25.40;29.70
80256;DHT22;69564;37.974;23.708;2023-05-07T09:40:25;25.40;29.70
80256;DHT22;69564;37.974;23.708;2023-05-07T09:42:51;25.40;29.60
80256;DHT22;69564;37.974;23.708;2023-05-07T09:45:22;25.40;29.60
80256;DHT22;69564;37.974;23.708;2023-05-07T09:47:48;25.40;29.70
80256;DHT22;69564;37.974;23.708;2023-05-07T09:50:15;25.40;29.60
80256;DHT22;69564;37.974;23.708;2023-05-07T09:52:42;25.40;29.60
80256;DHT22;69564;37.974;23.708;2023-05-07T09:55:10;25.40;29.60
80256;DHT22;69564;37.974;23.708;2023-05-07T09:57:36;25.40;29.60
80256;DHT22;69564;37.974;23.708;2023-05-07T10:00:03;25.30;29.50
80256;DHT22;69564;37.974;23.708;2023-05-07T10:02:30;25.30;29.50
80256;DHT22;69564;37.974;23.708;2023-05-07T10:04:57;25.30;29.40
80256;DHT22;69564;37.974;23.708;2023-05-07T10:07:26;25.40;29.50
80256;DHT22;69564;37.974;23.708;2023-05-07T10:09:52;25.30;29.40
80256;DHT22;69564;37.974;23.708;2023-05-07T10:12:19;25.40;29.40
80256;DHT22;69564;37.974;23.708;2023-05-07T10:14:45;25.30;29.40
80256;DHT22;69564;37.974;23.708;2023-05-07T10:17:13;25.30;29.40
80256;DHT22;69564;37.974;23.708;2023-05-07T10:19:41;25.40;29.40
80256;DHT22;69564;37.974;23.708;2023-05-07T10:22:08;25.30;30.20
80256;DHT22;69564;37.974;23.708;2023-05-07T10:24:36;25.30;29.40
80256;DHT22;69564;37.974;23.708;2023-05-07T10:27:06;25.40;29.40
80256;DHT22;69564;37.974;23.708;2023-05-07T10:32:33;25.30;29.40
80256;DHT22;69564;37.974;23.708;2023-05-07T10:35:03;25.30;29.40
80256;DHT22;69564;37.974;23.708;2023-05-07T10:37:30;25.30;29.30
80256;DHT22;69564;37.974;23.708;2023-05-07T10:39:56;25.30;29.40
80256;DHT22;69564;37.974;23.708;2023-05-07T10:42:23;25.30;29.40
80256;DHT22;69564;37.974;23.708;2023-05-07T10:44:49;25.30;29.40
80256;DHT22;69564;37.974;23.708;2023-05-07T10:47:16;25.30;29.40
80256;DHT22;69564;37.974;23.708;2023-05-07T10:54:42;25.30;29.40
80256;DHT22;69564;37.974;23.708;2023-05-07T10:57:36;25.30;29.30
80256;DHT22;69564;37.974;23.708;2023-05-07T11:03:14;25.40;29.40
80256;DHT22;69564;37.974;23.708;2023-05-07T11:05:41;25.30;29.40
80256;DHT22;69564;37.974;23.708;2023-05-07T11:08:08;25.30;29.30
80256;DHT22;69564;37.974;23.708;2023-05-07T11:10:53;25.30;29.30
80256;DHT22;69564;37.974;23.708;2023-05-07T11:13:43;25.30;29.30
80256;DHT22;69564;37.974;23.708;2023-05-07T11:16:23;25.30;29.30
80256;DHT22;69564;37.974;23.708;2023-05-07T11:18:51;25.30;29.30
80256;DHT22;69564;37.974;23.708;2023-05-07T11:21:39;25.30;29.30
80256;DHT22;69564;37.974;23.708;2023-05-07T11:24:09;25.30;29.30
80256;DHT22;69564;37.974;23.708;2023-05-07T11:26:47;25.30;29.30
80256;DHT22;69564;37.974;23.708;2023-05-07T11:29:18;25.30;29.20
80256;DHT22;69564;37.974;23.708;2023-05-07T11:31:51;25.40;29.30
80256;DHT22;69564;37.974;23.708;2023-05-07T11:34:24;25.30;29.20
80256;DHT22;69564;37.974;23.708;2023-05-07T11:36:51;25.40;30.10
80256;DHT22;69564;37.974;23.708;2023-05-07T11:39:32;25.40;29.30
80256;DHT22;69564;37.974;23.708;2023-05-07T11:42:02;25.40;29.30
80256;DHT22;69564;37.974;23.708;2023-05-07T11:44:44;25.30;29.20
80256;DHT22;69564;37.974;23.708;2023-05-07T11:47:17;25.40;29.30
80256;DHT22;69564;37.974;23.708;2023-05-07T11:49:42;25.30;29.20
80256;DHT22;69564;37.974;23.708;2023-05-07T11:52:09;25.40;29.20
80256;DHT22;69564;37.974;23.708;2023-05-07T11:54:37;25.40;29.20
80256;DHT22;69564;37.974;23.708;2023-05-07T11:57:02;25.30;29.10
80256;DHT22;69564;37.974;23.708;2023-05-07T11:59:28;25.40;29.10
80256;DHT22;69564;37.974;23.708;2023-05-07T12:01:57;25.30;29.10
80256;DHT22;69564;37.974;23.708;2023-05-07T12:04:24;25.30;29.10
80256;DHT22;69564;37.974;23.708;2023-05-07T12:06:54;25.40;29.20
80256;DHT22;69564;37.974;23.708;2023-05-07T12:09:21;25.30;29.10
80256;DHT22;69564;37.974;23.708;2023-05-07T12:11:47;25.40;29.20
80256;DHT22;69564;37.974;23.708;2023-05-07T12:14:13;25.30;29.10
80256;DHT22;69564;37.974;23.708;2023-05-07T12:16:41;25.30;29.10
80256;DHT22;69564;37.974;23.708;2023-05-07T12:19:08;25.30;29.10
80256;DHT22;69564;37.974;23.708;2023-05-07T12:21:38;25.30;29.10
80256;DHT22;69564;37.974;23.708;2023-05-07T12:24:05;25.30;29.20
80256;DHT22;69564;37.974;23.708;2023-05-07T12:26:31;25.30;29.20
80256;DHT22;69564;37.974;23.708;2023-05-07T12:28:59;25.30;29.20
80256;DHT22;69564;37.974;23.708;2023-05-07T12:31:26;25.30;29.20
80256;DHT22;69564;37.974;23.708;2023-05-07T12:33:52;25.30;29.20
80256;DHT22;69564;37.974;23.708;2023-05-07T12:36:18;25.30;29.20
80256;DHT22;69564;37.974;23.708;2023-05-07T12:38:43;25.30;29.30
80256;DHT22;69564;37.974;23.708;2023-05-07T12:41:10;25.30;29.20
80256;DHT22;69564;37.974;23.708;2023-05-07T12:43:38;25.30;29.20
80256;DHT22;69564;37.974;23.708;2023-05-07T12:46:06;25.30;29.20
80256;DHT22;69564;37.974;23.708;2023-05-07T12:48:32;25.20;29.20
80256;DHT22;69564;37.974;23.708;2023-05-07T12:50:59;25.30;29.20
80256;DHT22;69564;37.974;23.708;2023-05-07T12:53:26;25.30;29.20
80256;DHT22;69564;37.974;23.708;2023-05-07T12:55:54;25.30;29.20
80256;DHT22;69564;37.974;23.708;2023-05-07T13:00:51;25.30;29.20
80256;DHT22;69564;37.974;23.708;2023-05-07T13:03:27;25.30;29.20
80256;DHT22;69564;37.974;23.708;2023-05-07T13:05:55;25.30;29.20
80256;DHT22;69564;37.974;23.708;2023-05-07T13:08:31;25.30;29.20
80256;DHT22;69564;37.974;23.708;2023-05-07T13:11:02;25.20;29.00
80256;DHT22;69564;37.974;23.708;2023-05-07T13:13:33;25.20;29.10
80256;DHT22;69564;37.974;23.708;2023-05-07T13:16:01;25.20;29.10
80256;DHT22;69564;37.974;23.708;2023-05-07T13:18:29;25.20;29.10
80256;DHT22;69564;37.974;23.708;2023-05-07T13:20:55;25.30;29.20
80256;DHT22;69564;37.974;23.708;2023-05-07T13:23:21;25.20;29.00
80256;DHT22;69564;37.974;23.708;2023-05-07T13:25:47;25.20;29.00
80256;DHT22;69564;37.974;23.708;2023-05-07T13:28:13;25.20;29.10
80256;DHT22;69564;37.974;23.708;2023-05-07T13:30:39;25.20;29.10
80256;DHT22;69564;37.974;23.708;2023-05-07T13:33:06;25.20;29.10
80256;DHT22;69564;37.974;23.708;2023-05-07T13:35:32;25.20;29.00
80256;DHT22;69564;37.974;23.708;2023-05-07T13:37:58;25.20;29.00
80256;DHT22;69564;37.974;23.708;2023-05-07T13:40:24;25.20;29.00
80256;DHT22;69564;37.974;23.708;2023-05-07T13:42:50;25.30;29.10
80256;DHT22;69564;37.974;23.708;2023-05-07T13:45:19;25.20;29.00
80256;DHT22;69564;37.974;23.708;2023-05-07T13:47:45;25.20;29.00
80256;DHT22;69564;37.974;23.708;2023-05-07T13:50:12;25.20;29.00
80256;DHT22;69564;37.974;23.708;2023-05-07T13:52:41;25.20;29.00
80256;DHT22;69564;37.974;23.708;2023-05-07T13:55:11;25.20;28.90
80256;DHT22;69564;37.974;23.708;2023-05-07T13:57:38;25.20;29.00
80256;DHT22;69564;37.974;23.708;2023-05-07T14:00:04;25.20;29.10
80256;DHT22;69564;37.974;23.708;2023-05-07T14:02:31;25.20;29.00
80256;DHT22;69564;37.974;23.708;2023-05-07T14:04:57;25.20;29.00
80256;DHT22;69564;37.974;23.708;2023-05-07T14:07:22;25.20;28.90
80256;DHT22;69564;37.974;23.708;2023-05-07T14:09:49;25.20;28.90
80256;DHT22;69564;37.974;23.708;2023-05-07T14:12:14;25.20;28.90
80256;DHT22;69564;37.974;23.708;2023-05-07T14:14:41;25.20;29.00
80256;DHT22;69564;37.974;23.708;2023-05-07T14:17:06;25.20;29.00
80256;DHT22;69564;37.974;23.708;2023-05-07T14:19:33;25.10;28.90
80256;DHT22;69564;37.974;23.708;2023-05-07T14:21:59;25.20;29.00
80256;DHT22;69564;37.974;23.708;2023-05-07T14:24:25;25.20;29.00
80256;DHT22;69564;37.974;23.708;2023-05-07T14:26:51;25.20;29.00
80256;DHT22;69564;37.974;23.708;2023-05-07T14:29:17;25.20;28.90
80256;DHT22;69564;37.974;23.708;2023-05-07T14:31:44;25.20;28.90
80256;DHT22;69564;37.974;23.708;2023-05-07T14:34:10;25.20;28.90
80256;DHT22;69564;37.974;23.708;2023-05-07T14:36:36;25.20;28.90
80256;DHT22;69564;37.974;23.708;2023-05-07T14:39:03;25.20;28.90
80256;DHT22;69564;37.974;23.708;2023-05-07T14:41:29;25.20;28.90
80256;DHT22;69564;37.974;23.708;2023-05-07T14:43:55;25.10;28.90
80256;DHT22;69564;37.974;23.708;2023-05-07T14:46:21;25.10;28.90
80256;DHT22;69564;37.974;23.708;2023-05-07T14:48:46;25.10;28.90
80256;DHT22;69564;37.974;23.708;2023-05-07T14:51:13;25.20;28.90
80256;DHT22;69564;37.974;23.708;2023-05-07T14:53:41;25.10;28.90
80256;DHT22;69564;37.974;23.708;2023-05-07T14:56:07;25.10;29.80
80256;DHT22;69564;37.974;23.708;2023-05-07T14:58:34;25.10;28.90
80256;DHT22;69564;37.974;23.708;2023-05-07T15:01:00;25.10;28.90
80256;DHT22;69564;37.974;23.708;2023-05-07T15:03:27;25.10;28.90
80256;DHT22;69564;37.974;23.708;2023-05-07T15:05:52;25.10;28.90
80256;DHT22;69564;37.974;23.708;2023-05-07T15:08:19;25.10;28.80
80256;DHT22;69564;37.974;23.708;2023-05-07T15:10:45;25.10;28.80
80256;DHT22;69564;37.974;23.708;2023-05-07T15:13:11;25.10;28.80
80256;DHT22;69564;37.974;23.708;2023-05-07T15:15:38;25.10;28.80
80256;DHT22;69564;37.974;23.708;2023-05-07T15:18:04;25.10;28.80
80256;DHT22;69564;37.974;23.708;2023-05-07T15:20:31;25.10;28.80
80256;DHT22;69564;37.974;23.708;2023-05-07T15:22:57;25.10;28.80
80256;DHT22;69564;37.974;23.708;2023-05-07T15:25:23;25.10;28.80